Terminal Aerodrome Forecast
Issued by NWS Shreveport, LA

Home | Current Version | Previous Version | Text Only | Print | Product List | Glossary On
Versions: 1 2 3 4 5 6 7 8 9 10 11 12 13 14 15 16 17 18 19
000
FTUS44 KSHV 222059 AAC
TAFSHV
TAF AMD
KSHV 222059Z 2221/2318 32012KT P6SM FEW026
     FM230000 33010KT P6SM SCT025 BKN035
     FM230200 34010KT P6SM SKC
     FM230600 34006KT P6SM SKC
     FM231500 31007KT P6SM SKC=

USA.gov is the U.S. government's official web portal to all federal, state and local government web resources and services.